sensor_id;sensor_type;location;lat;lon;timestamp;temperature;humidity
674;DHT22;319;48.764;9.174;2023-04-25T00:01:21;11.90;97.70
674;DHT22;319;48.764;9.174;2023-04-25T00:03:48;11.90;97.20
674;DHT22;319;48.764;9.174;2023-04-25T00:06:16;11.80;97.00
674;DHT22;319;48.764;9.174;2023-04-25T00:08:43;11.80;96.50
674;DHT22;319;48.764;9.174;2023-04-25T00:11:12;11.80;96.40
674;DHT22;319;48.764;9.174;2023-04-25T00:13:39;11.80;96.20
674;DHT22;319;48.764;9.174;2023-04-25T00:16:07;11.80;96.20
674;DHT22;319;48.764;9.174;2023-04-25T00:18:34;11.80;96.00
674;DHT22;319;48.764;9.174;2023-04-25T00:21:02;11.80;96.50
674;DHT22;319;48.764;9.174;2023-04-25T00:23:31;11.90;96.20
674;DHT22;319;48.764;9.174;2023-04-25T00:25:58;11.90;96.20
674;DHT22;319;48.764;9.174;2023-04-25T00:28:26;11.80;96.20
674;DHT22;319;48.764;9.174;2023-04-25T00:30:53;11.80;96.10
674;DHT22;319;48.764;9.174;2023-04-25T00:33:20;11.80;96.30
674;DHT22;319;48.764;9.174;2023-04-25T00:35:47;11.90;96.00
674;DHT22;319;48.764;9.174;2023-04-25T00:40:56;11.90;96.60
674;DHT22;319;48.764;9.174;2023-04-25T00:43:23;11.90;96.90
674;DHT22;319;48.764;9.174;2023-04-25T00:45:53;11.90;97.20
674;DHT22;319;48.764;9.174;2023-04-25T00:48:22;11.90;97.30
674;DHT22;319;48.764;9.174;2023-04-25T00:50:52;11.90;97.20
674;DHT22;319;48.764;9.174;2023-04-25T00:53:20;11.80;96.60
674;DHT22;319;48.764;9.174;2023-04-25T00:55:47;11.80;96.40
674;DHT22;319;48.764;9.174;2023-04-25T00:58:16;11.80;96.40
674;DHT22;319;48.764;9.174;2023-04-25T01:00:44;11.80;96.30
674;DHT22;319;48.764;9.174;2023-04-25T01:03:13;11.70;96.30
674;DHT22;319;48.764;9.174;2023-04-25T01:05:42;11.60;96.50
674;DHT22;319;48.764;9.174;2023-04-25T01:08:09;11.50;97.00
674;DHT22;319;48.764;9.174;2023-04-25T01:10:37;11.60;97.50
674;DHT22;319;48.764;9.174;2023-04-25T01:13:04;11.50;97.40
674;DHT22;319;48.764;9.174;2023-04-25T01:15:31;11.50;97.20
674;DHT22;319;48.764;9.174;2023-04-25T01:17:58;11.50;97.00
674;DHT22;319;48.764;9.174;2023-04-25T01:20:32;11.60;97.00
674;DHT22;319;48.764;9.174;2023-04-25T01:23:00;11.60;97.00
674;DHT22;319;48.764;9.174;2023-04-25T01:25:28;11.60;97.10
674;DHT22;319;48.764;9.174;2023-04-25T01:27:56;11.60;97.30
674;DHT22;319;48.764;9.174;2023-04-25T01:30:23;11.60;97.70
674;DHT22;319;48.764;9.174;2023-04-25T01:32:51;11.60;98.60
674;DHT22;319;48.764;9.174;2023-04-25T01:35:19;11.60;99.20
674;DHT22;319;48.764;9.174;2023-04-25T01:37:46;11.60;99.20
674;DHT22;319;48.764;9.174;2023-04-25T01:40:14;11.70;99.20
674;DHT22;319;48.764;9.174;2023-04-25T01:42:42;11.70;99.10
674;DHT22;319;48.764;9.174;2023-04-25T01:45:10;11.70;99.00
674;DHT22;319;48.764;9.174;2023-04-25T01:47:38;11.70;98.80
674;DHT22;319;48.764;9.174;2023-04-25T01:50:08;11.70;99.00
674;DHT22;319;48.764;9.174;2023-04-25T01:52:35;11.70;99.10
674;DHT22;319;48.764;9.174;2023-04-25T01:55:02;11.70;99.30
674;DHT22;319;48.764;9.174;2023-04-25T01:57:31;11.50;99.00
674;DHT22;319;48.764;9.174;2023-04-25T01:59:59;11.60;99.30
674;DHT22;319;48.764;9.174;2023-04-25T02:02:27;11.60;99.40
674;DHT22;319;48.764;9.174;2023-04-25T02:04:53;11.60;98.90
674;DHT22;319;48.764;9.174;2023-04-25T02:07:21;11.50;98.70
674;DHT22;319;48.764;9.174;2023-04-25T02:09:48;11.40;98.90
674;DHT22;319;48.764;9.174;2023-04-25T02:12:15;11.30;99.00
674;DHT22;319;48.764;9.174;2023-04-25T02:14:44;11.20;99.10
674;DHT22;319;48.764;9.174;2023-04-25T02:17:10;11.20;99.20
674;DHT22;319;48.764;9.174;2023-04-25T02:19:39;11.20;99.20
674;DHT22;319;48.764;9.174;2023-04-25T02:22:05;11.20;99.20
674;DHT22;319;48.764;9.174;2023-04-25T02:24:32;11.20;98.90
674;DHT22;319;48.764;9.174;2023-04-25T02:27:00;11.20;98.70
674;DHT22;319;48.764;9.174;2023-04-25T02:29:27;11.20;98.50
674;DHT22;319;48.764;9.174;2023-04-25T02:31:55;11.20;98.50
674;DHT22;319;48.764;9.174;2023-04-25T02:34:22;11.20;98.50
674;DHT22;319;48.764;9.174;2023-04-25T02:36:49;11.20;98.50
674;DHT22;319;48.764;9.174;2023-04-25T02:39:16;11.20;98.50
674;DHT22;319;48.764;9.174;2023-04-25T02:41:43;11.10;98.50
674;DHT22;319;48.764;9.174;2023-04-25T02:44:10;11.20;98.20
674;DHT22;319;48.764;9.174;2023-04-25T02:46:37;11.20;98.10
674;DHT22;319;48.764;9.174;2023-04-25T02:49:05;11.20;98.00
674;DHT22;319;48.764;9.174;2023-04-25T02:51:32;11.20;98.00
674;DHT22;319;48.764;9.174;2023-04-25T02:53:59;11.20;98.20
674;DHT22;319;48.764;9.174;2023-04-25T02:56:26;11.10;98.00
674;DHT22;319;48.764;9.174;2023-04-25T02:58:53;11.10;98.00
674;DHT22;319;48.764;9.174;2023-04-25T03:01:20;11.10;97.90
674;DHT22;319;48.764;9.174;2023-04-25T03:03:47;11.10;97.90
674;DHT22;319;48.764;9.174;2023-04-25T03:06:15;11.00;97.90
674;DHT22;319;48.764;9.174;2023-04-25T03:08:42;11.00;98.10
674;DHT22;319;48.764;9.174;2023-04-25T03:11:09;11.00;98.30
674;DHT22;319;48.764;9.174;2023-04-25T03:13:36;11.00;98.50
674;DHT22;319;48.764;9.174;2023-04-25T03:16:03;11.10;98.40
674;DHT22;319;48.764;9.174;2023-04-25T03:18:31;11.10;98.60
674;DHT22;319;48.764;9.174;2023-04-25T03:20:58;11.20;98.50
674;DHT22;319;48.764;9.174;2023-04-25T03:23:26;11.30;98.90
674;DHT22;319;48.764;9.174;2023-04-25T03:25:53;11.20;99.30
674;DHT22;319;48.764;9.174;2023-04-25T03:28:20;11.20;99.20
674;DHT22;319;48.764;9.174;2023-04-25T03:30:47;11.30;99.00
674;DHT22;319;48.764;9.174;2023-04-25T03:33:14;11.30;98.70
674;DHT22;319;48.764;9.174;2023-04-25T03:35:41;11.20;98.60
674;DHT22;319;48.764;9.174;2023-04-25T03:38:08;11.20;98.40
674;DHT22;319;48.764;9.174;2023-04-25T03:40:36;11.20;98.40
674;DHT22;319;48.764;9.174;2023-04-25T03:43:03;11.10;98.30
674;DHT22;319;48.764;9.174;2023-04-25T03:45:31;11.00;98.90
674;DHT22;319;48.764;9.174;2023-04-25T03:47:58;10.90;98.90
674;DHT22;319;48.764;9.174;2023-04-25T03:50:25;11.00;99.20
674;DHT22;319;48.764;9.174;2023-04-25T03:52:52;11.00;99.60
674;DHT22;319;48.764;9.174;2023-04-25T03:55:19;11.10;99.60
674;DHT22;319;48.764;9.174;2023-04-25T03:57:47;11.00;99.50
674;DHT22;319;48.764;9.174;2023-04-25T04:00:15;11.00;99.40
674;DHT22;319;48.764;9.174;2023-04-25T04:02:42;11.00;99.50
674;DHT22;319;48.764;9.174;2023-04-25T04:05:09;10.90;99.60
674;DHT22;319;48.764;9.174;2023-04-25T04:07:36;10.90;99.50
674;DHT22;319;48.764;9.174;2023-04-25T04:10:06;10.80;99.70
674;DHT22;319;48.764;9.174;2023-04-25T04:12:33;10.80;99.90
674;DHT22;319;48.764;9.174;2023-04-25T04:15:01;10.70;99.90
674;DHT22;319;48.764;9.174;2023-04-25T04:17:29;10.70;99.90
674;DHT22;319;48.764;9.174;2023-04-25T04:19:56;10.70;99.90
674;DHT22;319;48.764;9.174;2023-04-25T04:22:23;10.70;99.80
674;DHT22;319;48.764;9.174;2023-04-25T04:24:50;10.70;99.90
674;DHT22;319;48.764;9.174;2023-04-25T04:27:17;10.60;99.90
674;DHT22;319;48.764;9.174;2023-04-25T04:29:44;10.60;99.90
674;DHT22;319;48.764;9.174;2023-04-25T04:32:13;10.60;99.90
674;DHT22;319;48.764;9.174;2023-04-25T04:34:40;10.60;99.90
674;DHT22;319;48.764;9.174;2023-04-25T04:37:08;10.60;99.90
674;DHT22;319;48.764;9.174;2023-04-25T04:39:35;10.60;99.90
674;DHT22;319;48.764;9.174;2023-04-25T04:42:03;10.60;99.90
674;DHT22;319;48.764;9.174;2023-04-25T04:44:30;10.70;99.90
674;DHT22;319;48.764;9.174;2023-04-25T04:46:59;10.70;99.90
674;DHT22;319;48.764;9.174;2023-04-25T04:49:28;10.80;99.50
674;DHT22;319;48.764;9.174;2023-04-25T04:51:55;10.90;99.50
674;DHT22;319;48.764;9.174;2023-04-25T04:54:22;11.00;99.70
674;DHT22;319;48.764;9.174;2023-04-25T04:56:49;11.00;99.50
674;DHT22;319;48.764;9.174;2023-04-25T04:59:17;11.00;99.60
674;DHT22;319;48.764;9.174;2023-04-25T05:01:44;11.00;99.50
674;DHT22;319;48.764;9.174;2023-04-25T05:04:12;11.10;99.60
674;DHT22;319;48.764;9.174;2023-04-25T05:06:40;11.10;99.20
674;DHT22;319;48.764;9.174;2023-04-25T05:09:07;11.20;99.10
674;DHT22;319;48.764;9.174;2023-04-25T05:11:34;11.30;99.10
674;DHT22;319;48.764;9.174;2023-04-25T05:14:01;11.30;99.00
674;DHT22;319;48.764;9.174;2023-04-25T05:16:28;11.30;99.10
674;DHT22;319;48.764;9.174;2023-04-25T05:18:55;11.30;99.20
674;DHT22;319;48.764;9.174;2023-04-25T05:21:22;11.40;99.50
674;DHT22;319;48.764;9.174;2023-04-25T05:23:50;11.40;98.90
674;DHT22;319;48.764;9.174;2023-04-25T05:26:17;11.50;99.00
674;DHT22;319;48.764;9.174;2023-04-25T05:28:44;11.60;98.80
674;DHT22;319;48.764;9.174;2023-04-25T05:31:11;11.60;98.40
674;DHT22;319;48.764;9.174;2023-04-25T05:33:38;11.60;98.00
674;DHT22;319;48.764;9.174;2023-04-25T05:36:05;11.60;97.90
674;DHT22;319;48.764;9.174;2023-04-25T05:38:33;11.60;97.90
674;DHT22;319;48.764;9.174;2023-04-25T05:41:01;11.70;98.00
674;DHT22;319;48.764;9.174;2023-04-25T05:43:28;11.80;98.10
674;DHT22;319;48.764;9.174;2023-04-25T05:45:55;11.90;97.90
674;DHT22;319;48.764;9.174;2023-04-25T05:48:22;11.90;97.50
674;DHT22;319;48.764;9.174;2023-04-25T05:50:49;12.20;97.40
674;DHT22;319;48.764;9.174;2023-04-25T05:53:17;12.20;96.80
674;DHT22;319;48.764;9.174;2023-04-25T05:55:44;12.30;96.60
674;DHT22;319;48.764;9.174;2023-04-25T05:58:12;12.30;96.40
674;DHT22;319;48.764;9.174;2023-04-25T06:00:42;12.00;96.00
674;DHT22;319;48.764;9.174;2023-04-25T06:03:10;11.70;95.70
674;DHT22;319;48.764;9.174;2023-04-25T06:05:36;11.40;96.00
674;DHT22;319;48.764;9.174;2023-04-25T06:08:03;11.30;96.40
674;DHT22;319;48.764;9.174;2023-04-25T06:10:30;11.40;96.80
674;DHT22;319;48.764;9.174;2023-04-25T06:12:57;11.40;96.80
674;DHT22;319;48.764;9.174;2023-04-25T06:15:26;11.50;96.70
674;DHT22;319;48.764;9.174;2023-04-25T06:17:53;11.50;96.90
674;DHT22;319;48.764;9.174;2023-04-25T06:20:20;11.60;96.90
674;DHT22;319;48.764;9.174;2023-04-25T06:22:49;11.60;96.60
674;DHT22;319;48.764;9.174;2023-04-25T06:25:17;11.70;96.50
674;DHT22;319;48.764;9.174;2023-04-25T06:27:44;11.80;96.40
674;DHT22;319;48.764;9.174;2023-04-25T06:30:11;11.80;96.50
674;DHT22;319;48.764;9.174;2023-04-25T06:32:40;11.90;96.80
674;DHT22;319;48.764;9.174;2023-04-25T06:35:07;12.00;96.90
674;DHT22;319;48.764;9.174;2023-04-25T06:37:34;12.10;97.00
674;DHT22;319;48.764;9.174;2023-04-25T06:40:01;12.00;97.00
674;DHT22;319;48.764;9.174;2023-04-25T06:42:28;12.00;97.20
674;DHT22;319;48.764;9.174;2023-04-25T06:44:54;12.00;97.40
674;DHT22;319;48.764;9.174;2023-04-25T06:47:21;12.00;97.90
674;DHT22;319;48.764;9.174;2023-04-25T06:49:50;11.90;98.00
674;DHT22;319;48.764;9.174;2023-04-25T06:52:17;11.70;98.20
674;DHT22;319;48.764;9.174;2023-04-25T06:54:44;11.50;98.40
674;DHT22;319;48.764;9.174;2023-04-25T06:57:11;11.40;98.60
674;DHT22;319;48.764;9.174;2023-04-25T06:59:38;11.30;98.80
674;DHT22;319;48.764;9.174;2023-04-25T07:02:05;11.20;99.10
674;DHT22;319;48.764;9.174;2023-04-25T07:04:32;11.30;99.50
674;DHT22;319;48.764;9.174;2023-04-25T07:07:00;11.40;99.60
674;DHT22;319;48.764;9.174;2023-04-25T07:09:28;11.40;99.00
674;DHT22;319;48.764;9.174;2023-04-25T07:11:55;11.40;99.00
674;DHT22;319;48.764;9.174;2023-04-25T07:14:22;11.50;99.10
674;DHT22;319;48.764;9.174;2023-04-25T07:16:48;11.40;98.90
674;DHT22;319;48.764;9.174;2023-04-25T07:19:15;11.40;99.60
674;DHT22;319;48.764;9.174;2023-04-25T07:21:42;11.40;99.90
674;DHT22;319;48.764;9.174;2023-04-25T07:24:10;11.40;99.90
674;DHT22;319;48.764;9.174;2023-04-25T07:26:37;11.30;99.90
674;DHT22;319;48.764;9.174;2023-04-25T07:29:05;11.30;99.90
674;DHT22;319;48.764;9.174;2023-04-25T07:31:32;11.30;99.90
674;DHT22;319;48.764;9.174;2023-04-25T07:33:59;11.30;99.90
674;DHT22;319;48.764;9.174;2023-04-25T07:36:25;11.40;99.90
674;DHT22;319;48.764;9.174;2023-04-25T07:38:53;11.40;99.90
674;DHT22;319;48.764;9.174;2023-04-25T07:41:21;11.40;99.90
674;DHT22;319;48.764;9.174;2023-04-25T07:43:48;11.40;99.90
674;DHT22;319;48.764;9.174;2023-04-25T07:46:15;11.50;99.90
674;DHT22;319;48.764;9.174;2023-04-25T07:48:42;11.50;99.90
674;DHT22;319;48.764;9.174;2023-04-25T07:51:09;11.60;99.90
674;DHT22;319;48.764;9.174;2023-04-25T07:53:36;11.50;99.90
674;DHT22;319;48.764;9.174;2023-04-25T07:56:04;11.50;99.90
674;DHT22;319;48.764;9.174;2023-04-25T07:58:32;11.40;99.90
674;DHT22;319;48.764;9.174;2023-04-25T08:00:59;11.30;99.90
674;DHT22;319;48.764;9.174;2023-04-25T08:03:29;11.20;99.90
674;DHT22;319;48.764;9.174;2023-04-25T08:05:56;11.20;99.90
674;DHT22;319;48.764;9.174;2023-04-25T08:08:22;11.10;99.90
674;DHT22;319;48.764;9.174;2023-04-25T08:10:49;11.00;99.90
674;DHT22;319;48.764;9.174;2023-04-25T08:13:16;11.00;99.90
674;DHT22;319;48.764;9.174;2023-04-25T08:15:44;10.90;99.90
674;DHT22;319;48.764;9.174;2023-04-25T08:18:11;11.00;99.90
674;DHT22;319;48.764;9.174;2023-04-25T08:20:38;10.90;99.90
674;DHT22;319;48.764;9.174;2023-04-25T08:23:06;11.00;99.90
674;DHT22;319;48.764;9.174;2023-04-25T08:25:34;11.00;99.90
674;DHT22;319;48.764;9.174;2023-04-25T08:28:01;11.10;99.90
674;DHT22;319;48.764;9.174;2023-04-25T08:30:28;11.00;99.90
674;DHT22;319;48.764;9.174;2023-04-25T08:32:56;10.90;99.90
674;DHT22;319;48.764;9.174;2023-04-25T08:35:23;10.90;99.90
674;DHT22;319;48.764;9.174;2023-04-25T08:37:50;11.00;99.90
674;DHT22;319;48.764;9.174;2023-04-25T08:40:17;11.10;99.90
674;DHT22;319;48.764;9.174;2023-04-25T08:42:52;11.20;99.90
674;DHT22;319;48.764;9.174;2023-04-25T08:45:20;11.20;99.90
674;DHT22;319;48.764;9.174;2023-04-25T08:47:47;11.20;99.90
674;DHT22;319;48.764;9.174;2023-04-25T08:50:19;11.20;99.90
674;DHT22;319;48.764;9.174;2023-04-25T08:52:50;11.20;99.90
674;DHT22;319;48.764;9.174;2023-04-25T08:55:18;11.30;99.90
674;DHT22;319;48.764;9.174;2023-04-25T08:57:45;11.30;99.90
674;DHT22;319;48.764;9.174;2023-04-25T09:00:13;11.30;99.90
674;DHT22;319;48.764;9.174;2023-04-25T09:02:40;11.30;99.90
674;DHT22;319;48.764;9.174;2023-04-25T09:05:09;11.20;99.90
674;DHT22;319;48.764;9.174;2023-04-25T09:07:38;11.20;99.90
674;DHT22;319;48.764;9.174;2023-04-25T09:10:05;11.20;99.90
674;DHT22;319;48.764;9.174;2023-04-25T09:12:32;11.10;99.90
674;DHT22;319;48.764;9.174;2023-04-25T09:15:04;11.10;99.90
674;DHT22;319;48.764;9.174;2023-04-25T09:17:31;11.00;99.90
674;DHT22;319;48.764;9.174;2023-04-25T09:20:06;10.90;99.90
674;DHT22;319;48.764;9.174;2023-04-25T09:22:34;10.90;99.90
674;DHT22;319;48.764;9.174;2023-04-25T09:25:07;10.90;99.90
674;DHT22;319;48.764;9.174;2023-04-25T09:27:35;10.90;99.90
674;DHT22;319;48.764;9.174;2023-04-25T09:30:02;10.80;99.90
674;DHT22;319;48.764;9.174;2023-04-25T09:32:30;10.70;99.90
674;DHT22;319;48.764;9.174;2023-04-25T09:34:57;10.80;99.90
674;DHT22;319;48.764;9.174;2023-04-25T09:37:26;10.80;99.90
674;DHT22;319;48.764;9.174;2023-04-25T09:39:55;10.70;99.90
674;DHT22;319;48.764;9.174;2023-04-25T09:42:24;10.60;99.90
674;DHT22;319;48.764;9.174;2023-04-25T09:44:53;10.60;99.90
674;DHT22;319;48.764;9.174;2023-04-25T09:47:20;10.60;99.90
674;DHT22;319;48.764;9.174;2023-04-25T09:49:49;10.60;99.90
674;DHT22;319;48.764;9.174;2023-04-25T09:52:18;10.70;99.90
674;DHT22;319;48.764;9.174;2023-04-25T09:54:45;10.80;99.90
674;DHT22;319;48.764;9.174;2023-04-25T09:57:14;10.90;99.90
674;DHT22;319;48.764;9.174;2023-04-25T09:59:45;10.90;99.90
674;DHT22;319;48.764;9.174;2023-04-25T10:02:13;10.60;99.90
674;DHT22;319;48.764;9.174;2023-04-25T10:04:41;10.60;99.90
674;DHT22;319;48.764;9.174;2023-04-25T10:07:09;10.60;99.90
674;DHT22;319;48.764;9.174;2023-04-25T10:09:38;10.60;99.90
674;DHT22;319;48.764;9.174;2023-04-25T10:12:07;10.60;99.90
674;DHT22;319;48.764;9.174;2023-04-25T10:14:34;10.60;99.90
674;DHT22;319;48.764;9.174;2023-04-25T10:17:03;10.60;99.90
674;DHT22;319;48.764;9.174;2023-04-25T10:19:30;10.60;99.90
674;DHT22;319;48.764;9.174;2023-04-25T10:22:07;10.70;99.90
674;DHT22;319;48.764;9.174;2023-04-25T10:24:35;10.70;99.90
674;DHT22;319;48.764;9.174;2023-04-25T10:27:03;10.60;99.90
674;DHT22;319;48.764;9.174;2023-04-25T10:29:30;10.60;99.90
674;DHT22;319;48.764;9.174;2023-04-25T10:31:58;10.60;99.90
674;DHT22;319;48.764;9.174;2023-04-25T10:34:39;10.70;99.90
674;DHT22;319;48.764;9.174;2023-04-25T10:37:09;10.60;99.90
674;DHT22;319;48.764;9.174;2023-04-25T10:39:36;10.70;99.90
674;DHT22;319;48.764;9.174;2023-04-25T10:42:04;10.70;99.90
674;DHT22;319;48.764;9.174;2023-04-25T10:44:32;10.50;99.90
674;DHT22;319;48.764;9.174;2023-04-25T10:46:59;10.40;99.90
674;DHT22;319;48.764;9.174;2023-04-25T10:49:35;10.50;99.90
674;DHT22;319;48.764;9.174;2023-04-25T10:52:19;10.40;99.90
674;DHT22;319;48.764;9.174;2023-04-25T10:54:52;10.40;99.90
674;DHT22;319;48.764;9.174;2023-04-25T10:57:46;10.50;99.90
674;DHT22;319;48.764;9.174;2023-04-25T11:00:17;10.40;99.90
674;DHT22;319;48.764;9.174;2023-04-25T11:02:45;10.20;99.90
674;DHT22;319;48.764;9.174;2023-04-25T11:05:23;9.90;99.90
674;DHT22;319;48.764;9.174;2023-04-25T11:07:55;9.70;99.90
674;DHT22;319;48.764;9.174;2023-04-25T11:10:25;9.60;99.90
674;DHT22;319;48.764;9.174;2023-04-25T11:12:53;9.50;99.90
674;DHT22;319;48.764;9.174;2023-04-25T11:15:20;9.60;99.90
674;DHT22;319;48.764;9.174;2023-04-25T11:17:47;9.60;99.90
674;DHT22;319;48.764;9.174;2023-04-25T11:20:14;9.60;99.90
674;DHT22;319;48.764;9.174;2023-04-25T11:22:44;9.70;99.90
674;DHT22;319;48.764;9.174;2023-04-25T11:25:13;9.70;99.90
674;DHT22;319;48.764;9.174;2023-04-25T11:27:49;9.60;99.90
674;DHT22;319;48.764;9.174;2023-04-25T11:30:17;9.50;99.90
674;DHT22;319;48.764;9.174;2023-04-25T11:32:44;9.60;99.90
674;DHT22;319;48.764;9.174;2023-04-25T11:35:12;9.70;99.90
674;DHT22;319;48.764;9.174;2023-04-25T11:37:39;9.80;99.90
674;DHT22;319;48.764;9.174;2023-04-25T11:40:08;9.80;99.90
674;DHT22;319;48.764;9.174;2023-04-25T11:42:37;9.90;99.90
674;DHT22;319;48.764;9.174;2023-04-25T11:45:05;10.10;99.90
674;DHT22;319;48.764;9.174;2023-04-25T11:47:33;10.40;99.90
674;DHT22;319;48.764;9.174;2023-04-25T11:50:00;10.40;99.90
674;DHT22;319;48.764;9.174;2023-04-25T11:52:36;10.50;99.90
674;DHT22;319;48.764;9.174;2023-04-25T11:55:05;10.60;99.90
674;DHT22;319;48.764;9.174;2023-04-25T11:57:34;10.70;99.90
674;DHT22;319;48.764;9.174;2023-04-25T12:00:13;10.80;99.90
674;DHT22;319;48.764;9.174;2023-04-25T12:02:41;10.80;99.90
674;DHT22;319;48.764;9.174;2023-04-25T12:05:08;10.80;99.90
674;DHT22;319;48.764;9.174;2023-04-25T12:07:35;10.90;99.90
674;DHT22;319;48.764;9.174;2023-04-25T12:10:05;10.80;99.90
674;DHT22;319;48.764;9.174;2023-04-25T12:12:35;10.70;99.90
674;DHT22;319;48.764;9.174;2023-04-25T12:15:09;10.90;99.90
674;DHT22;319;48.764;9.174;2023-04-25T12:17:37;11.00;99.90
674;DHT22;319;48.764;9.174;2023-04-25T12:20:09;11.10;99.90
674;DHT22;319;48.764;9.174;2023-04-25T12:22:36;11.00;99.90
674;DHT22;319;48.764;9.174;2023-04-25T12:25:04;11.10;99.90
674;DHT22;319;48.764;9.174;2023-04-25T12:27:31;11.00;99.90
674;DHT22;319;48.764;9.174;2023-04-25T12:30:00;11.00;99.90
674;DHT22;319;48.764;9.174;2023-04-25T12:32:27;10.90;99.90
674;DHT22;319;48.764;9.174;2023-04-25T12:34:54;10.90;99.90
674;DHT22;319;48.764;9.174;2023-04-25T12:37:21;10.90;99.90
674;DHT22;319;48.764;9.174;2023-04-25T12:39:48;11.10;99.90
674;DHT22;319;48.764;9.174;2023-04-25T12:42:15;11.30;99.90
674;DHT22;319;48.764;9.174;2023-04-25T12:44:42;11.40;99.90
674;DHT22;319;48.764;9.174;2023-04-25T12:47:10;11.50;99.90
674;DHT22;319;48.764;9.174;2023-04-25T12:49:37;11.60;99.90
674;DHT22;319;48.764;9.174;2023-04-25T12:52:04;11.70;99.90
674;DHT22;319;48.764;9.174;2023-04-25T12:54:31;11.70;99.90
674;DHT22;319;48.764;9.174;2023-04-25T12:56:58;11.80;99.90
674;DHT22;319;48.764;9.174;2023-04-25T12:59:25;12.00;99.90
674;DHT22;319;48.764;9.174;2023-04-25T13:01:52;12.20;99.90
674;DHT22;319;48.764;9.174;2023-04-25T13:04:20;12.40;99.90
674;DHT22;319;48.764;9.174;2023-04-25T13:06:47;12.60;99.50
674;DHT22;319;48.764;9.174;2023-04-25T13:09:14;12.90;99.10
674;DHT22;319;48.764;9.174;2023-04-25T13:11:41;13.10;99.00
674;DHT22;319;48.764;9.174;2023-04-25T13:14:09;13.40;98.90
674;DHT22;319;48.764;9.174;2023-04-25T13:16:35;13.60;98.50
674;DHT22;319;48.764;9.174;2023-04-25T13:19:02;13.60;97.90
674;DHT22;319;48.764;9.174;2023-04-25T13:21:31;13.70;97.80
674;DHT22;319;48.764;9.174;2023-04-25T13:23:58;13.80;97.40
674;DHT22;319;48.764;9.174;2023-04-25T13:26:25;13.70;97.00
674;DHT22;319;48.764;9.174;2023-04-25T13:28:52;13.50;97.50
674;DHT22;319;48.764;9.174;2023-04-25T13:31:20;13.50;98.10
674;DHT22;319;48.764;9.174;2023-04-25T13:33:46;13.60;97.90
674;DHT22;319;48.764;9.174;2023-04-25T13:36:13;13.50;97.40
674;DHT22;319;48.764;9.174;2023-04-25T13:38:42;13.40;97.40
674;DHT22;319;48.764;9.174;2023-04-25T13:41:10;13.40;97.90
674;DHT22;319;48.764;9.174;2023-04-25T13:43:41;13.60;98.00
674;DHT22;319;48.764;9.174;2023-04-25T13:46:08;13.90;97.80
674;DHT22;319;48.764;9.174;2023-04-25T13:48:35;14.00;97.20
674;DHT22;319;48.764;9.174;2023-04-25T13:51:02;14.00;96.80
674;DHT22;319;48.764;9.174;2023-04-25T13:53:29;14.00;96.90
674;DHT22;319;48.764;9.174;2023-04-25T13:55:57;13.90;97.10
674;DHT22;319;48.764;9.174;2023-04-25T13:58:24;13.80;97.50
674;DHT22;319;48.764;9.174;2023-04-25T14:00:51;13.80;97.70
674;DHT22;319;48.764;9.174;2023-04-25T14:03:19;13.70;97.60
674;DHT22;319;48.764;9.174;2023-04-25T14:05:46;13.70;97.50
674;DHT22;319;48.764;9.174;2023-04-25T14:08:12;13.70;98.00
674;DHT22;319;48.764;9.174;2023-04-25T14:10:40;13.90;97.70
674;DHT22;319;48.764;9.174;2023-04-25T14:13:08;14.00;97.20
674;DHT22;319;48.764;9.174;2023-04-25T14:15:43;13.80;96.70
674;DHT22;319;48.764;9.174;2023-04-25T14:18:20;13.80;96.90
674;DHT22;319;48.764;9.174;2023-04-25T14:20:47;14.20;97.20
674;DHT22;319;48.764;9.174;2023-04-25T14:23:14;14.40;96.40
674;DHT22;319;48.764;9.174;2023-04-25T14:25:41;14.40;95.00
674;DHT22;319;48.764;9.174;2023-04-25T14:28:10;14.10;94.80
674;DHT22;319;48.764;9.174;2023-04-25T14:30:37;14.00;95.40
674;DHT22;319;48.764;9.174;2023-04-25T14:33:04;13.80;95.60
674;DHT22;319;48.764;9.174;2023-04-25T14:35:31;13.90;96.30
674;DHT22;319;48.764;9.174;2023-04-25T14:37:57;14.00;96.50
674;DHT22;319;48.764;9.174;2023-04-25T14:40:25;14.20;95.70
674;DHT22;319;48.764;9.174;2023-04-25T14:42:52;14.40;93.90
674;DHT22;319;48.764;9.174;2023-04-25T14:45:20;14.40;92.90
674;DHT22;319;48.764;9.174;2023-04-25T14:47:47;14.30;93.30
674;DHT22;319;48.764;9.174;2023-04-25T14:50:14;14.20;93.60
674;DHT22;319;48.764;9.174;2023-04-25T14:52:41;13.90;93.80
674;DHT22;319;48.764;9.174;2023-04-25T14:55:14;13.90;94.30
674;DHT22;319;48.764;9.174;2023-04-25T14:57:41;13.70;93.90
674;DHT22;319;48.764;9.174;2023-04-25T15:00:09;13.70;94.30
674;DHT22;319;48.764;9.174;2023-04-25T15:02:42;13.70;94.70
674;DHT22;319;48.764;9.174;2023-04-25T15:05:09;13.70;94.80
674;DHT22;319;48.764;9.174;2023-04-25T15:07:36;13.70;94.30
674;DHT22;319;48.764;9.174;2023-04-25T15:10:05;14.00;94.30
674;DHT22;319;48.764;9.174;2023-04-25T15:12:36;14.20;94.20
674;DHT22;319;48.764;9.174;2023-04-25T15:15:04;14.50;93.90
674;DHT22;319;48.764;9.174;2023-04-25T15:17:32;14.60;93.50
674;DHT22;319;48.764;9.174;2023-04-25T15:20:00;14.70;93.10
674;DHT22;319;48.764;9.174;2023-04-25T15:22:27;14.60;93.40
674;DHT22;319;48.764;9.174;2023-04-25T15:24:54;14.60;93.60
674;DHT22;319;48.764;9.174;2023-04-25T15:27:21;14.50;93.40
674;DHT22;319;48.764;9.174;2023-04-25T15:29:48;14.30;93.90
674;DHT22;319;48.764;9.174;2023-04-25T15:32:15;14.10;94.30
674;DHT22;319;48.764;9.174;2023-04-25T15:34:42;13.90;93.70
674;DHT22;319;48.764;9.174;2023-04-25T15:37:10;13.70;93.90
674;DHT22;319;48.764;9.174;2023-04-25T15:39:37;13.60;94.50
674;DHT22;319;48.764;9.174;2023-04-25T15:42:04;13.40;94.40
674;DHT22;319;48.764;9.174;2023-04-25T15:44:31;13.40;94.70
674;DHT22;319;48.764;9.174;2023-04-25T15:46:58;13.50;94.60
674;DHT22;319;48.764;9.174;2023-04-25T15:49:25;13.50;94.20
674;DHT22;319;48.764;9.174;2023-04-25T15:51:53;13.50;94.50
674;DHT22;319;48.764;9.174;2023-04-25T15:54:21;13.60;94.30
674;DHT22;319;48.764;9.174;2023-04-25T15:56:48;13.40;93.90
674;DHT22;319;48.764;9.174;2023-04-25T15:59:15;13.20;94.00
674;DHT22;319;48.764;9.174;2023-04-25T16:01:42;13.00;94.30
674;DHT22;319;48.764;9.174;2023-04-25T16:04:09;13.00;94.60
674;DHT22;319;48.764;9.174;2023-04-25T16:06:36;13.00;94.20
674;DHT22;319;48.764;9.174;2023-04-25T16:09:03;12.90;94.40
674;DHT22;319;48.764;9.174;2023-04-25T16:11:32;12.90;94.70
674;DHT22;319;48.764;9.174;2023-04-25T16:13:59;12.80;95.20
674;DHT22;319;48.764;9.174;2023-04-25T16:16:26;12.90;95.80
674;DHT22;319;48.764;9.174;2023-04-25T16:18:53;12.80;95.80
674;DHT22;319;48.764;9.174;2023-04-25T16:21:20;12.90;95.80
674;DHT22;319;48.764;9.174;2023-04-25T16:23:46;12.90;96.30
674;DHT22;319;48.764;9.174;2023-04-25T16:26:13;13.10;95.50
674;DHT22;319;48.764;9.174;2023-04-25T16:28:43;13.20;95.30
674;DHT22;319;48.764;9.174;2023-04-25T16:31:17;13.30;95.30
674;DHT22;319;48.764;9.174;2023-04-25T16:33:44;13.30;95.10
674;DHT22;319;48.764;9.174;2023-04-25T16:36:11;13.30;94.70
674;DHT22;319;48.764;9.174;2023-04-25T16:38:38;13.20;94.50
674;DHT22;319;48.764;9.174;2023-04-25T16:41:05;13.00;94.20